createdAt,value
2018-04-07T00:01:10.108Z,13.88
2018-04-07T00:04:20.139Z,12.48
2018-04-07T00:07:30.781Z,13.82
2018-04-07T00:10:41.088Z,12.37
2018-04-07T00:13:56.465Z,14.00
2018-04-07T00:17:06.613Z,13.52
2018-04-07T00:20:16.670Z,13.13
2018-04-07T00:23:27.046Z,14.10
2018-04-07T00:26:37.789Z,14.02
2018-04-07T00:29:47.563Z,12.95
2018-04-07T00:32:57.553Z,12.05
2018-04-07T00:36:08.215Z,13.38
2018-04-07T00:39:17.981Z,13.23
2018-04-07T00:42:28.339Z,12.32
2018-04-07T00:45:38.634Z,14.63
2018-04-07T00:48:48.523Z,12.18
2018-04-07T00:51:58.353Z,10.70
2018-04-07T00:55:08.176Z,12.80
2018-04-07T00:58:18.718Z,11.45
2018-04-07T01:01:29.990Z,13.45
2018-04-07T01:04:40.511Z,13.38
2018-04-07T01:07:50.349Z,11.73
2018-04-07T01:11:00.274Z,11.60
2018-04-07T01:14:10.067Z,12.55
2018-04-07T01:17:20.584Z,14.45
2018-04-07T01:20:30.743Z,11.90
2018-04-07T01:23:40.642Z,13.18
2018-04-07T01:26:51.250Z,13.52
2018-04-07T01:30:01.042Z,14.05
2018-04-07T01:33:11.504Z,13.75
2018-04-07T01:36:22.077Z,12.52
2018-04-07T01:39:32.331Z,12.07
2018-04-07T01:42:43.009Z,12.73
2018-04-07T01:45:53.087Z,12.18
2018-04-07T01:49:04.557Z,13.98
2018-04-07T01:52:14.435Z,14.43
2018-04-07T01:55:24.590Z,14.93
2018-04-07T01:58:34.994Z,12.90
2018-04-07T02:01:44.732Z,12.75
2018-04-07T02:04:54.665Z,13.45
2018-04-07T02:08:04.640Z,12.48
2018-04-07T02:11:14.588Z,15.68
2018-04-07T02:14:24.459Z,13.40
2018-04-07T02:17:34.325Z,13.68
2018-04-07T02:20:44.159Z,15.75
2018-04-07T02:23:54.106Z,14.48
2018-04-07T02:27:03.985Z,14.35
2018-04-07T02:30:13.534Z,14.87
2018-04-07T02:33:23.429Z,16.12
2018-04-07T02:36:33.616Z,16.85
2018-04-07T02:39:44.322Z,15.60
2018-04-07T02:42:54.194Z,14.98
2018-04-07T02:46:03.944Z,14.27
2018-04-07T02:49:14.344Z,13.50
2018-04-07T02:52:24.279Z,12.82
2018-04-07T02:55:34.056Z,11.60
2018-04-07T02:58:43.863Z,14.87
2018-04-07T03:01:53.779Z,12.32
2018-04-07T03:05:03.665Z,12.70
2018-04-07T03:08:14.414Z,14.25
2018-04-07T03:11:24.989Z,13.18
2018-04-07T03:14:35.436Z,12.43
2018-04-07T03:17:45.318Z,11.98
2018-04-07T03:20:55.284Z,12.45
2018-04-07T03:24:05.111Z,14.10
2018-04-07T03:27:15.862Z,14.43
2018-04-07T03:30:26.080Z,13.68
2018-04-07T03:33:36.034Z,13.13
2018-04-07T03:36:46.001Z,21.17
2018-04-07T03:39:55.967Z,14.05
2018-04-07T03:43:05.968Z,16.60
2018-04-07T03:46:15.640Z,14.05
2018-04-07T03:49:25.527Z,14.05
2018-04-07T03:52:35.664Z,13.82
2018-04-07T03:55:45.938Z,15.25
2018-04-07T03:58:55.890Z,13.15
2018-04-07T04:02:06.030Z,13.38
2018-04-07T04:05:15.688Z,14.15
2018-04-07T04:08:26.545Z,15.43
2018-04-07T04:11:36.579Z,14.48
2018-04-07T04:14:46.762Z,12.68
2018-04-07T04:17:57.390Z,15.85
2018-04-07T04:21:07.362Z,14.80
2018-04-07T04:24:17.550Z,13.30
2018-04-07T04:27:28.219Z,13.85
2018-04-07T04:30:38.156Z,15.70
2018-04-07T04:33:48.159Z,13.52
2018-04-07T04:36:58.094Z,14.15
2018-04-07T04:40:08.266Z,13.57
2018-04-07T04:43:18.889Z,15.55
2018-04-07T04:46:28.966Z,14.98
2018-04-07T04:49:39.237Z,13.82
2018-04-07T04:52:49.326Z,15.10
2018-04-07T04:56:00.109Z,14.52
2018-04-07T04:59:10.157Z,17.73
2018-04-07T05:02:20.143Z,12.23
2018-04-07T05:05:30.397Z,13.70
2018-04-07T05:08:40.261Z,15.50
2018-04-07T05:11:50.718Z,14.48
2018-04-07T05:15:01.289Z,13.90
2018-04-07T05:18:12.267Z,14.10
2018-04-07T05:21:22.222Z,14.02
2018-04-07T05:24:32.080Z,13.48
2018-04-07T05:27:43.422Z,15.60
2018-04-07T05:30:54.598Z,14.18
2018-04-07T05:34:04.754Z,14.43
2018-04-07T05:37:15.056Z,15.25
2018-04-07T05:40:26.590Z,14.32
2018-04-07T05:43:37.613Z,14.13
2018-04-07T05:46:47.806Z,14.05
2018-04-07T05:49:58.555Z,14.50
2018-04-07T05:53:09.148Z,13.95
2018-04-07T05:56:19.161Z,12.57
2018-04-07T05:59:29.094Z,16.95
2018-04-07T06:02:40.086Z,15.25
2018-04-07T06:05:50.016Z,15.30
2018-04-07T06:09:00.046Z,15.02
2018-04-07T06:12:10.402Z,12.48
2018-04-07T06:15:20.187Z,11.45
2018-04-07T06:18:30.441Z,13.20
2018-04-07T06:21:41.226Z,11.60
2018-04-07T06:24:51.090Z,11.57
2018-04-07T06:28:01.192Z,13.93
2018-04-07T06:31:11.789Z,12.80
2018-04-07T06:34:22.357Z,13.30
2018-04-07T06:37:33.248Z,16.48
2018-04-07T06:40:43.672Z,11.80
2018-04-07T06:43:54.405Z,14.85
2018-04-07T06:47:04.917Z,11.95
2018-04-07T06:50:16.854Z,13.88
2018-04-07T06:53:27.588Z,12.98
2018-04-07T06:56:37.746Z,12.60
2018-04-07T06:59:48.958Z,12.93
2018-04-07T07:02:59.725Z,12.77
2018-04-07T07:06:09.796Z,11.68
2018-04-07T07:09:20.872Z,12.18
2018-04-07T07:12:32.486Z,12.30
2018-04-07T07:15:43.402Z,12.88
2018-04-07T07:18:53.764Z,13.15
2018-04-07T07:22:04.092Z,12.32
2018-04-07T07:25:15.212Z,14.68
2018-04-07T07:28:25.646Z,14.73
2018-04-07T07:31:35.877Z,15.50
2018-04-07T07:34:46.382Z,107.30
2018-04-07T07:37:56.139Z,82.82
2018-04-07T07:41:06.036Z,43.55
2018-04-07T07:44:15.925Z,67.32
2018-04-07T07:47:25.720Z,32.75
2018-04-07T07:50:35.659Z,29.15
2018-04-07T07:53:45.879Z,20.27
2018-04-07T07:56:56.787Z,12.68
2018-04-07T08:00:06.061Z,15.40
2018-04-07T08:03:16.414Z,15.98
2018-04-07T08:06:26.588Z,26.75
2018-04-07T08:09:36.676Z,15.48
2018-04-07T08:12:46.542Z,23.12
2018-04-07T08:15:56.672Z,13.82
2018-04-07T08:19:06.609Z,13.70
2018-04-07T08:22:16.534Z,17.10
2018-04-07T08:25:27.242Z,14.40
2018-04-07T08:28:38.131Z,13.23
2018-04-07T08:31:48.656Z,15.30
2018-04-07T08:34:59.766Z,16.15
2018-04-07T08:38:09.332Z,15.57
2018-04-07T08:41:20.603Z,17.50
2018-04-07T08:44:30.542Z,13.93
2018-04-07T08:47:40.851Z,15.13
2018-04-07T08:50:51.324Z,16.10
2018-04-07T08:54:02.501Z,15.05
2018-04-07T08:57:12.707Z,14.93
2018-04-07T09:00:22.666Z,16.25
2018-04-07T09:03:33.416Z,14.40
2018-04-07T09:06:43.463Z,16.80
2018-04-07T09:09:53.484Z,14.50
2018-04-07T09:13:03.607Z,19.10
2018-04-07T09:16:14.280Z,14.73
2018-04-07T09:19:24.626Z,17.30
2018-04-07T09:22:35.216Z,16.90
2018-04-07T09:25:47.289Z,17.83
2018-04-07T09:28:57.475Z,15.23
2018-04-07T09:32:07.644Z,13.70
2018-04-07T09:35:17.551Z,15.88
2018-04-07T09:38:28.440Z,16.70
2018-04-07T09:41:38.665Z,17.35
2018-04-07T09:44:48.826Z,16.92
2018-04-07T09:47:59.078Z,15.65
2018-04-07T09:51:09.734Z,16.05
2018-04-07T09:54:20.216Z,14.65
2018-04-07T09:57:30.486Z,14.35
2018-04-07T10:00:40.147Z,17.42
2018-04-07T10:03:50.444Z,14.27
2018-04-07T10:07:01.203Z,16.35
2018-04-07T10:10:11.577Z,15.95
2018-04-07T10:13:21.428Z,14.43
2018-04-07T10:16:31.504Z,15.38
2018-04-07T10:19:41.575Z,14.50
2018-04-07T10:22:51.648Z,16.35
2018-04-07T10:26:01.497Z,14.45
2018-04-07T10:29:11.623Z,16.12
2018-04-07T10:32:21.415Z,15.10
2018-04-07T10:35:32.516Z,14.95
2018-04-07T10:38:43.973Z,13.95
2018-04-07T10:41:55.000Z,14.45
2018-04-07T10:45:05.787Z,13.77
2018-04-07T10:48:16.042Z,13.48
2018-04-07T10:51:28.387Z,12.85
2018-04-07T10:54:39.124Z,12.40
2018-04-07T10:57:48.958Z,12.90
2018-04-07T11:00:58.861Z,13.02
2018-04-07T11:04:09.052Z,13.73
2018-04-07T11:07:18.970Z,13.23
2018-04-07T11:10:29.556Z,13.20
2018-04-07T11:13:39.667Z,14.00
2018-04-07T11:16:49.551Z,13.10
2018-04-07T11:19:59.560Z,43.83
2018-04-07T11:23:10.983Z,13.88
2018-04-07T11:26:21.079Z,12.70
2018-04-07T11:29:31.128Z,13.23
2018-04-07T11:32:41.114Z,14.82
2018-04-07T11:35:51.191Z,14.60
2018-04-07T11:39:02.177Z,13.82
2018-04-07T11:42:12.962Z,13.93
2018-04-07T11:45:24.558Z,13.50
2018-04-07T11:48:34.790Z,14.55
2018-04-07T11:51:44.670Z,13.60
2018-04-07T11:54:55.277Z,13.32
2018-04-07T11:58:05.346Z,13.43
2018-04-07T12:01:16.310Z,13.88
2018-04-07T12:04:27.183Z,12.70
2018-04-07T12:07:37.615Z,13.57
2018-04-07T12:10:48.473Z,14.02
2018-04-07T12:13:59.250Z,13.77
2018-04-07T12:17:09.337Z,14.50
2018-04-07T12:20:20.831Z,15.27
2018-04-07T12:23:30.752Z,14.45
2018-04-07T12:26:40.678Z,14.60
2018-04-07T12:29:50.681Z,13.27
2018-04-07T12:33:00.652Z,15.07
2018-04-07T12:36:10.430Z,15.07
2018-04-07T12:39:21.129Z,14.00
2018-04-07T12:42:32.114Z,13.38
2018-04-07T12:45:42.618Z,15.35
2018-04-07T12:48:52.658Z,14.90
2018-04-07T12:52:02.715Z,15.33
2018-04-07T12:55:13.202Z,15.20
2018-04-07T12:58:22.954Z,15.90
2018-04-07T13:01:33.192Z,15.63
2018-04-07T13:04:43.210Z,15.57
2018-04-07T13:07:52.800Z,15.40
2018-04-07T13:11:03.223Z,17.05
2018-04-07T13:14:13.224Z,15.95
2018-04-07T13:17:22.826Z,15.35
2018-04-07T13:20:32.707Z,14.98
2018-04-07T13:23:43.431Z,15.70
2018-04-07T13:26:53.335Z,16.17
2018-04-07T13:30:03.500Z,16.05
2018-04-07T13:33:13.156Z,16.92
2018-04-07T13:36:23.359Z,16.05
2018-04-07T13:39:33.247Z,16.25
2018-04-07T13:42:42.830Z,17.80
2018-04-07T13:45:52.758Z,17.77
2018-04-07T13:49:02.996Z,16.17
2018-04-07T13:52:13.443Z,15.20
2018-04-07T13:55:23.224Z,17.02
2018-04-07T13:58:32.877Z,19.73
2018-04-07T14:01:42.642Z,17.23
2018-04-07T14:04:52.517Z,17.10
2018-04-07T14:08:02.573Z,18.43
2018-04-07T14:11:12.380Z,15.77
2018-04-07T14:14:22.580Z,16.52
2018-04-07T14:17:32.811Z,16.80
2018-04-07T14:20:42.681Z,18.37
2018-04-07T14:23:52.591Z,16.02
2018-04-07T14:27:03.297Z,17.62
2018-04-07T14:30:14.018Z,19.25
2018-04-07T14:33:23.720Z,16.77
2018-04-07T14:36:33.992Z,17.48
2018-04-07T14:39:44.675Z,17.00
2018-04-07T14:42:55.018Z,19.50
2018-04-07T14:46:05.167Z,17.23
2018-04-07T14:49:14.946Z,17.85
2018-04-07T14:52:24.494Z,16.53
2018-04-07T14:55:34.024Z,18.53
2018-04-07T14:58:45.000Z,17.30
2018-04-07T15:01:55.016Z,17.60
2018-04-07T15:05:04.798Z,18.77
2018-04-07T15:08:14.547Z,20.57
2018-04-07T15:11:24.567Z,17.07
2018-04-07T15:14:34.411Z,19.33
2018-04-07T15:17:44.186Z,17.80
2018-04-07T15:20:53.993Z,19.20
2018-04-07T15:24:03.974Z,18.13
2018-04-07T15:27:14.192Z,17.17
2018-04-07T15:30:24.263Z,19.13
2018-04-07T15:33:34.223Z,19.93
2018-04-07T15:36:45.623Z,18.10
2018-04-07T15:39:56.069Z,20.37
2018-04-07T15:43:06.545Z,19.50
2018-04-07T15:46:16.156Z,19.90
2018-04-07T15:49:25.961Z,20.80
2018-04-07T15:52:37.470Z,20.17
2018-04-07T15:55:46.955Z,20.27
2018-04-07T15:58:57.044Z,20.40
2018-04-07T16:02:07.623Z,21.00
2018-04-07T16:05:17.823Z,20.30
2018-04-07T16:08:27.639Z,22.40
2018-04-07T16:11:37.528Z,21.30
2018-04-07T16:14:48.051Z,23.12
2018-04-07T16:17:58.023Z,22.37
2018-04-07T16:21:08.066Z,20.48
2018-04-07T16:24:18.772Z,20.70
2018-04-07T16:27:29.130Z,24.42
2018-04-07T16:30:38.848Z,22.73
2018-04-07T16:33:48.880Z,23.52
2018-04-07T16:37:00.334Z,22.70
2018-04-07T16:40:10.066Z,20.15
2018-04-07T16:43:20.041Z,20.25
2018-04-07T16:46:29.771Z,21.15
2018-04-07T16:49:39.883Z,19.95
2018-04-07T16:52:49.927Z,18.87
2018-04-07T16:56:00.391Z,22.33
2018-04-07T16:59:10.727Z,19.65
2018-04-07T17:02:21.788Z,21.08
2018-04-07T17:05:32.327Z,19.37
2018-04-07T17:08:42.213Z,19.80
2018-04-07T17:11:52.903Z,22.00
2018-04-07T17:15:02.976Z,19.98
2018-04-07T17:18:13.008Z,21.65
2018-04-07T17:21:22.905Z,23.67
2018-04-07T17:24:32.841Z,21.12
2018-04-07T17:27:42.602Z,18.73
2018-04-07T17:30:53.122Z,20.77
2018-04-07T17:34:03.533Z,18.58
2018-04-07T17:37:13.818Z,19.15
2018-04-07T17:40:23.894Z,19.40
2018-04-07T17:43:33.916Z,23.77
2018-04-07T17:46:44.810Z,19.17
2018-04-07T17:49:55.140Z,24.85
2018-04-07T17:53:05.891Z,20.40
2018-04-07T17:56:16.445Z,22.62
2018-04-07T17:59:26.882Z,21.20
2018-04-07T18:02:37.174Z,20.45
2018-04-07T18:05:47.156Z,17.25
2018-04-07T18:08:58.019Z,18.85
2018-04-07T18:12:08.535Z,19.73
2018-04-07T18:15:19.266Z,17.98
2018-04-07T18:18:30.503Z,16.23
2018-04-07T18:21:41.170Z,18.00
2018-04-07T18:24:51.160Z,17.25
2018-04-07T18:28:02.213Z,16.42
2018-04-07T18:34:51.412Z,17.00
2018-04-07T18:38:02.243Z,16.65
2018-04-07T18:41:12.878Z,17.17
2018-04-07T18:44:23.871Z,17.33
2018-04-07T18:47:34.617Z,16.08
2018-04-07T18:50:45.929Z,16.02
2018-04-07T18:53:57.015Z,16.20
2018-04-07T18:57:07.317Z,15.57
2018-04-07T19:00:17.290Z,16.00
2018-04-07T19:03:28.063Z,16.95
2018-04-07T19:06:38.783Z,15.45
2018-04-07T19:09:49.428Z,16.65
2018-04-07T19:12:59.637Z,16.15
2018-04-07T19:16:10.552Z,15.23
2018-04-07T19:19:20.954Z,14.87
2018-04-07T19:22:30.843Z,16.02
2018-04-07T19:25:40.879Z,15.35
2018-04-07T19:28:51.602Z,15.38
2018-04-07T19:32:01.752Z,13.95
2018-04-07T19:35:11.488Z,17.20
2018-04-07T19:38:21.887Z,15.40
2018-04-07T19:41:31.982Z,15.25
2018-04-07T19:44:42.846Z,15.50
2018-04-07T19:47:54.357Z,16.70
2018-04-07T19:51:04.833Z,16.90
2018-04-07T19:54:15.732Z,16.85
2018-04-07T19:57:26.287Z,18.00
2018-04-07T20:00:36.945Z,16.50
2018-04-07T20:03:46.957Z,15.65
2018-04-07T20:06:57.677Z,17.05
2018-04-07T20:10:08.490Z,15.38
2018-04-07T20:13:20.070Z,16.50
2018-04-07T20:16:32.521Z,15.35
2018-04-07T20:19:42.997Z,16.00
2018-04-07T20:22:53.506Z,17.83
2018-04-07T20:26:04.225Z,17.65
2018-04-07T20:29:14.967Z,17.15
2018-04-07T20:32:25.459Z,15.73
2018-04-07T20:35:35.436Z,16.60
2018-04-07T20:38:46.078Z,15.73
2018-04-07T20:41:56.226Z,15.63
2018-04-07T20:45:06.894Z,16.23
2018-04-07T20:48:17.840Z,17.98
2018-04-07T20:51:28.012Z,17.87
2018-04-07T20:54:38.868Z,18.70
2018-04-07T20:57:48.682Z,16.52
2018-04-07T21:00:58.685Z,15.70
2018-04-07T21:04:09.268Z,15.68
2018-04-07T21:07:19.936Z,16.35
2018-04-07T21:10:29.903Z,18.00
2018-04-07T21:13:39.912Z,19.35
2018-04-07T21:16:50.535Z,17.92
2018-04-07T21:20:00.348Z,20.35
2018-04-07T21:23:10.882Z,17.40
2018-04-07T21:26:21.073Z,19.90
2018-04-07T21:29:32.168Z,18.10
2018-04-07T21:32:42.530Z,18.90
2018-04-07T21:35:52.453Z,16.98
2018-04-07T21:39:02.312Z,18.80
2018-04-07T21:42:12.846Z,18.55
2018-04-07T21:45:23.510Z,19.08
2018-04-07T21:48:33.395Z,18.80
2018-04-07T21:51:44.273Z,16.80
2018-04-07T21:54:55.019Z,17.25
2018-04-07T21:58:05.719Z,17.17
2018-04-07T22:01:16.370Z,17.92
2018-04-07T22:04:26.998Z,18.58
2018-04-07T22:07:37.634Z,19.27
2018-04-07T22:10:47.197Z,17.40
2018-04-07T22:13:57.162Z,17.52
2018-04-07T22:17:07.479Z,17.35
2018-04-07T22:20:17.287Z,18.25
2018-04-07T22:23:27.394Z,18.45
2018-04-07T22:26:37.938Z,17.25
2018-04-07T22:29:47.980Z,16.87
2018-04-07T22:32:59.206Z,20.30
2018-04-07T22:36:09.322Z,19.35
2018-04-07T22:39:19.163Z,19.67
2018-04-07T22:42:29.291Z,21.27
2018-04-07T22:45:39.992Z,19.08
2018-04-07T22:48:50.608Z,20.67
2018-04-07T22:52:00.412Z,19.98
2018-04-07T22:55:10.277Z,19.85
2018-04-07T22:58:20.157Z,20.10
2018-04-07T23:01:32.801Z,19.42
2018-04-07T23:04:42.758Z,21.37
2018-04-07T23:07:52.548Z,22.15
2018-04-07T23:11:03.157Z,19.77
2018-04-07T23:14:13.098Z,19.87
2018-04-07T23:17:24.358Z,20.12
2018-04-07T23:20:34.578Z,19.30
2018-04-07T23:23:44.492Z,20.08
2018-04-07T23:26:54.263Z,19.37
2018-04-07T23:30:04.534Z,18.08
2018-04-07T23:33:14.659Z,17.25
2018-04-07T23:36:24.657Z,19.80
2018-04-07T23:39:35.174Z,17.25
2018-04-07T23:42:45.248Z,20.25
2018-04-07T23:45:55.942Z,19.15
2018-04-07T23:49:06.515Z,19.00
2018-04-07T23:52:17.712Z,21.62
